Flight Track Log - Related Links

Times and Time Zones

All times are in EDT time to prevent confusion due to time zone crossing. See the FLG3435 flight status page for this flight to view local times or setup timezone preferences in your user account.

Time Position Orientation Groundspeed Altitude Reporting Facility
EDT Latitude Longitude Course Direction KTS MPH feet Rate Location/Type
Mon 11:19:46 PM 44.8667 -93.1667 84° East 164 189 2,100  Level Minneapolis TRACON
Mon 11:20:34 PM 44.8711 -93.1067 84° East 183 211 3,300 1,596 Climbing Minneapolis Center
Mon 11:21:35 PM 44.9147 -93.0497 43° Northeast 251 289 5,000 2,213 Climbing Minneapolis Center
Mon 11:22:36 PM 44.9742 -93.0942 332° Northwest 266 306 7,800 2,634 Climbing Minneapolis Center
Mon 11:23:38 PM 45.0103 -93.1883 299° West 275 316 10,400 1,902 Climbing Minneapolis Center
Mon 11:24:39 PM 45.0200 -93.3086 277° West 318 366 11,700 1,721 Climbing Minneapolis Center
Mon 11:25:40 PM 45.0286 -93.4392 275° West 336 387 13,900 2,016 Climbing Minneapolis Center
Mon 11:26:41 PM 45.0367 -93.5733 275° West 346 398 15,800 1,869 Climbing Minneapolis Center
Mon 11:27:42 PM 45.0453 -93.7097 275° West 353 406 17,700 1,574 Climbing Minneapolis Center
Mon 11:28:43 PM 45.0522 -93.8497 274° West 357 411 19,000 1,574 Climbing Minneapolis Center
Mon 11:29:44 PM 45.0633 -94.0278 275° West 377 434 20,900 1,672 Climbing Minneapolis Center
Mon 11:30:45 PM 45.0728 -94.1767 275° West 381 438 22,400 1,426 Climbing Minneapolis Center
Mon 11:31:46 PM 45.0822 -94.3283 275° West 386 444 23,800 1,328 Climbing Minneapolis Center
Mon 11:32:47 PM 45.0911 -94.4825 275° West 392 451 25,100 1,131 Climbing Minneapolis Center
Mon 11:33:48 PM 45.1069 -94.6497 278° West 396 456 26,100 984 Climbing Minneapolis Center
Mon 11:34:49 PM 45.1233 -94.8083 278° West 404 465 27,100 1,082 Climbing Minneapolis Center
Mon 11:35:50 PM 45.1394 -94.9667 278° West 407 468 28,300 992 Climbing Minneapolis Center
Mon 11:36:50 PM 45.1550 -95.1267 278° West 410 472 29,100 843 Climbing Minneapolis Center
Mon 11:37:51 PM 45.1703 -95.2914 278° West 419 482 30,000 1,377 Climbing Minneapolis Center
Mon 11:38:52 PM 45.1850 -95.4514 277° West 416 479 31,900 1,623 Climbing Minneapolis Center
Mon 11:39:53 PM 45.1997 -95.6025 278° West 398 458 33,300 1,033 Climbing Minneapolis Center
Mon 11:40:54 PM 45.2119 -95.7503 277° West 386 444 34,000 313 Climbing Minneapolis Center
Mon 11:42:07 PM 45.2267 -95.9050 278° West 395 455 34,000  Level Minneapolis Center
Mon 11:43:08 PM 45.2442 -96.1011 277° West 417 480 34,000  Level Minneapolis Center
Mon 11:44:09 PM 45.2581 -96.2622 277° West 416 479 34,000  Level Minneapolis Center
Mon 11:45:10 PM 45.2733 -96.4492 277° West 402 463 34,000  Level Minneapolis Center
Mon 11:46:10 PM 45.2864 -96.6011 277° West 394 453 34,000  Level Minneapolis Center
Mon 11:47:11 PM 45.2983 -96.7561 276° West 396 456 34,000  Level Minneapolis Center
Mon 11:48:12 PM 45.3114 -96.9131 277° West 402 463 34,000  Level Minneapolis Center
Mon 11:49:13 PM 45.3236 -97.0711 276° West 403 464 34,000  Level Minneapolis Center
Mon 11:50:14 PM 45.3361 -97.2294 276° West 406 467 34,000  Level Minneapolis Center
Mon 11:51:15 PM 45.3481 -97.3908 276° West 410 472 34,000  Level Minneapolis Center
Mon 11:52:15 PM 45.3600 -97.5517 276° West 411 473 34,000  Level Minneapolis Center
Mon 11:53:16 PM 45.3722 -97.7142 276° West 414 476 34,000  Level Minneapolis Center
Mon 11:54:17 PM 45.3839 -97.8764 276° West 415 478 34,000  Level Minneapolis Center
Mon 11:55:18 PM 45.3956 -98.0392 276° West 416 479 34,000  Level Minneapolis Center
Mon 11:56:19 PM 45.4078 -98.2108 276° West 415 478 34,000  Level Minneapolis Center
Mon 11:57:19 PM 45.4192 -98.3747 276° West 417 480 34,000  Level Minneapolis Center
Mon 11:58:20 PM 45.4458 -98.5331 284° West 414 476 34,000  Level Minneapolis Center
Mon 11:59:21 PM 45.4711 -98.6933 283° West 415 478 34,000  Level Minneapolis Center
Tue 12:00:22 AM 45.4969 -98.8542 283° West 417 480 34,000  Level Minneapolis Center
Tue 12:01:22 AM 45.5222 -99.0144 283° West 417 480 34,000  Level Minneapolis Center
Tue 12:02:23 AM 45.5522 -99.2083 283° West 419 482 34,000  Level Minneapolis Center
Tue 12:03:24 AM 45.5769 -99.3708 282° West 420 483 34,000  Level Minneapolis Center
Tue 12:04:24 AM 45.6019 -99.5333 282° West 421 484 34,000  Level Minneapolis Center
Tue 12:05:25 AM 45.6267 -99.6969 282° West 422 486 34,000  Level Minneapolis Center
Tue 12:06:26 AM 45.6508 -99.8614 282° West 424 488 34,000  Level Minneapolis Center
Tue 12:07:27 AM 45.6756 -100.0242 282° West 424 488 34,000  Level Minneapolis Center
Tue 12:08:27 AM 45.6992 -100.1883 282° West 423 487 34,000  Level Minneapolis Center
Tue 12:09:28 AM 45.7231 -100.3539 282° West 426 490 34,000  Level Minneapolis Center
Tue 12:10:29 AM 45.7464 -100.5206 281° West 429 494 34,000  Level Minneapolis Center
Tue 12:11:29 AM 45.7703 -100.6872 282° West 428 493 34,000  Level Minneapolis Center
Tue 12:12:30 AM 45.7933 -100.8522 281° West 427 491 34,000  Level Minneapolis Center
Tue 12:13:30 AM 45.8164 -101.0153 282° West 422 486 34,000  Level Minneapolis Center
Tue 12:14:31 AM 45.8383 -101.1800 281° West 422 486 34,000  Level Minneapolis Center
Tue 12:15:32 AM 45.8619 -101.3411 282° West 418 481 34,000  Level Minneapolis Center
Tue 12:16:32 AM 45.8828 -101.5022 281° West 413 475 34,000  Level Minneapolis Center
Tue 12:17:33 AM 45.9042 -101.6636 281° West 413 475 34,000  Level Minneapolis Center
Tue 12:18:33 AM 45.9292 -101.8572 281° West 412 474 34,000  Level Minneapolis Center
Tue 12:19:34 AM 45.9506 -102.0183 281° West 412 474 34,000  Level Minneapolis Center
Tue 12:20:34 AM 45.9711 -102.1800 280° West 412 474 34,000  Level Minneapolis Center
Tue 12:21:35 AM 45.9917 -102.3403 281° West 411 473 34,000  Level Minneapolis Center
Tue 12:22:35 AM 46.0125 -102.5017 281° West 411 473 34,000  Level Minneapolis Center
Tue 12:23:36 AM 46.0325 -102.6625 280° West 410 472 34,000  Level Minneapolis Center
Tue 12:24:36 AM 46.0508 -102.8186 280° West 411 473 34,000  Level Minneapolis Center
Tue 12:25:37 AM 46.0708 -102.9817 280° West 414 476 34,000  Level Minneapolis Center
Tue 12:26:38 AM 46.0908 -103.1483 280° West 418 481 34,000  Level Minneapolis Center
Tue 12:27:38 AM 46.1089 -103.3147 279° West 420 483 34,000  Level Minneapolis Center
Tue 12:28:38 AM 46.1289 -103.4856 280° West 428 493 34,000  Level Minneapolis Center
Tue 12:29:39 AM 46.1478 -103.6553 279° West 429 494 34,000  Level Minneapolis Center
Tue 12:30:39 AM 46.1667 -103.8253 279° West 429 494 34,000  Level Minneapolis Center
Tue 12:31:50 AM 46.1872 -104.0269 278° West 429 494 34,000  Level Salt Lake Center
Tue 12:32:51 AM 46.2050 -104.1983 279° West 431 496 34,000  Level Salt Lake Center
Tue 12:33:52 AM 46.2231 -104.3692 279° West 431 496 34,000  Level Salt Lake Center
Tue 12:34:53 AM 46.2425 -104.5500 279° West 433 498 34,000  Level Salt Lake Center
Tue 12:35:54 AM 46.2592 -104.7208 278° West 432 497 34,000  Level Salt Lake Center
Tue 12:36:55 AM 46.2778 -104.8950 279° West 437 503 34,000  Level Salt Lake Center
Tue 12:37:56 AM 46.2942 -105.0653 278° West 435 501 34,000  Level Salt Lake Center
Tue 12:38:57 AM 46.3122 -105.2375 279° West 434 499 34,000  Level Salt Lake Center
Tue 12:39:58 AM 46.3278 -105.4075 278° West 432 497 34,000  Level Salt Lake Center
Tue 12:40:59 AM 46.3489 -105.6144 278° West 433 498 34,000  Level Salt Lake Center
Tue 12:42:00 AM 46.3664 -105.7850 279° West 433 498 34,000  Level Salt Lake Center
Tue 12:43:01 AM 46.3825 -105.9525 278° West 430 495 34,000  Level Salt Lake Center
Tue 12:44:02 AM 46.3933 -106.1225 275° West 428 493 34,000  Level Salt Lake Center
Tue 12:45:03 AM 46.4031 -106.2919 275° West 427 491 34,000  Level Salt Lake Center
Tue 12:46:04 AM 46.4139 -106.4619 275° West 427 491 34,000  Level Salt Lake Center
Tue 12:47:04 AM 46.4233 -106.6300 275° West 425 489 34,000  Level Salt Lake Center
Tue 12:48:05 AM 46.4328 -106.7978 275° West 423 487 34,000  Level Salt Lake Center
Tue 12:49:06 AM 46.4428 -106.9678 275° West 423 487 34,000  Level Salt Lake Center
Tue 12:50:07 AM 46.4528 -107.1361 275° West 423 487 34,000  Level Salt Lake Center
Tue 12:51:08 AM 46.4611 -107.3050 274° West 422 486 34,000  Level Salt Lake Center
Tue 12:52:09 AM 46.4703 -107.4747 275° West 423 487 34,000  Level Salt Lake Center
Tue 12:53:10 AM 46.4806 -107.6794 274° West 419 482 34,000  Level Salt Lake Center
Tue 12:54:11 AM 46.4892 -107.8483 274° West 420 483 34,000  Level Salt Lake Center
Tue 12:55:11 AM 46.4967 -108.0167 274° West 421 484 34,000  Level Salt Lake Center
Tue 12:56:12 AM 46.5039 -108.1858 274° West 422 486 34,000  Level Salt Lake Center
Tue 12:57:13 AM 46.5111 -108.3550 274° West 422 486 34,000  Level Salt Lake Center
Tue 12:58:14 AM 46.5186 -108.5242 274° West 422 486 34,000  Level Salt Lake Center
Tue 12:59:15 AM 46.5253 -108.6936 273° West 424 488 34,000  Level Salt Lake Center
Tue 01:00:16 AM 46.5317 -108.8622 273° West 422 486 34,000 198 Level Salt Lake Center
Tue 01:01:16 AM 46.5386 -109.0303 273° West 420 483 34,400 726 Climbing Salt Lake Center
Tue 01:02:20 AM 46.5436 -109.1978 273° West 418 481 35,500 787 Climbing Salt Lake Center
Tue 01:03:18 AM 46.5508 -109.3631 274° West 413 475 36,000 252 Climbing Salt Lake Center
Tue 01:04:19 AM 46.5539 -109.5325 272° West 418 481 36,000  Level Salt Lake Center
Tue 01:05:20 AM 46.5597 -109.7036 273° West 424 488 36,000  Level Salt Lake Center
Tue 01:06:21 AM 46.5661 -109.9108 273° West 429 494 36,000  Level Salt Lake Center
Tue 01:07:21 AM 46.5706 -110.0803 272° West 424 488 36,000  Level Salt Lake Center
Tue 01:08:22 AM 46.5756 -110.2458 273° West 415 478 36,000  Level Salt Lake Center
Tue 01:09:23 AM 46.5800 -110.4114 272° West 413 475 36,000  Level Salt Lake Center
Tue 01:10:24 AM 46.5833 -110.5756 272° West 409 471 36,000  Level Salt Lake Center
Tue 01:11:24 AM 46.5867 -110.7264 272° West 402 463 36,000  Level Salt Lake Center
Tue 01:12:25 AM 46.5900 -110.8900 272° West 403 464 36,000  Level Salt Lake Center
Tue 01:13:26 AM 46.5933 -111.0558 272° West 408 470 36,000  Level Salt Lake Center
Tue 01:14:27 AM 46.5967 -111.2250 272° West 416 479 36,000  Level Salt Lake Center
Tue 01:15:27 AM 46.5986 -111.3953 271° West 420 483 36,000  Level Salt Lake Center
Tue 01:16:28 AM 46.6014 -111.5681 271° West 425 489 36,000  Level Salt Lake Center
Tue 01:17:30 AM 46.6039 -111.7383 271° West 423 487 36,000  Level Salt Lake Center
Tue 01:18:30 AM 46.6064 -111.9058 271° West 418 481 36,000  Level Salt Lake Center
Tue 01:19:30 AM 46.6050 -112.0728 269° West 414 476 36,000  Level Salt Lake Center
Tue 01:20:31 AM 46.6014 -112.2386 268° West 411 473 36,000  Level Salt Lake Center
Tue 01:21:32 AM 46.5972 -112.4372 268° West 410 472 36,000  Level Salt Lake Center
Tue 01:22:33 AM 46.5933 -112.6031 268° West 410 472 36,000  Level Salt Lake Center
Tue 01:23:33 AM 46.5897 -112.7692 268° West 412 474 36,000  Level Salt Lake Center
Tue 01:24:34 AM 46.5858 -112.9356 268° West 413 475 36,000  Level Salt Lake Center
Tue 01:25:35 AM 46.5814 -113.1028 268° West 414 476 36,000  Level Salt Lake Center
Tue 01:26:35 AM 46.5772 -113.2700 268° West 415 478 36,000  Level Salt Lake Center
Tue 01:27:36 AM 46.5725 -113.4258 268° West 419 482 36,000  Level Salt Lake Center
Tue 01:28:37 AM 46.5678 -113.5942 268° West 418 481 36,000  Level Salt Lake Center
Tue 01:29:37 AM 46.5619 -113.7625 267° West 418 481 36,000  Level Salt Lake Center
Tue 01:30:38 AM 46.5558 -113.9294 267° West 415 478 36,000  Level Salt Lake Center
Tue 01:31:39 AM 46.5503 -114.0969 267° West 417 480 36,000  Level Salt Lake Center
Tue 01:32:39 AM 46.5444 -114.2653 267° West 417 480 36,000  Level Salt Lake Center
Tue 01:33:40 AM 46.5383 -114.4331 267° West 416 479 36,000  Level Salt Lake Center
Tue 01:34:40 AM 46.5317 -114.6003 267° West 417 480 36,000  Level Salt Lake Center
Tue 01:35:41 AM 46.5236 -114.8031 267° West 417 480 36,000  Level Salt Lake Center
Tue 01:36:20 AM 46.5192 -114.9042 266° West 417 480 36,000  Level Seattle Center
Tue 01:37:20 AM 46.5122 -115.0617 266° West 419 482 36,000  Level Seattle Center
Tue 01:38:21 AM 46.5056 -115.2303 267° West 419 482 36,000  Level Seattle Center
Tue 01:39:21 AM 46.4967 -115.3983 266° West 420 483 36,000  Level Seattle Center
Tue 01:40:22 AM 46.4900 -115.5653 267° West 417 480 36,000  Level Seattle Center
Tue 01:41:22 AM 46.4814 -115.7336 266° West 417 480 36,000  Level Seattle Center
Tue 01:42:23 AM 46.4728 -115.8986 266° West 414 476 36,000  Level Seattle Center
Tue 01:43:23 AM 46.4639 -116.0653 266° West 415 478 36,000  Level Seattle Center
Tue 01:44:24 AM 46.4556 -116.2317 266° West 414 476 36,000  Level Seattle Center
Tue 01:45:24 AM 46.4467 -116.3972 266° West 411 473 36,000  Level Seattle Center
Tue 01:46:25 AM 46.4372 -116.5642 265° West 414 476 36,000  Level Seattle Center
Tue 01:47:25 AM 46.4269 -116.7308 265° West 416 479 36,000  Level Seattle Center
Tue 01:48:25 AM 46.4175 -116.8961 265° West 413 475 36,000  Level Seattle Center
Tue 01:49:26 AM 46.4078 -117.0625 265° West 414 476 36,000 -149 Level Seattle Center
Tue 01:50:26 AM 46.3978 -117.2269 265° West 411 473 35,700 -1,488 Descending Seattle Center
Tue 01:51:27 AM 46.3881 -117.3886 265° West 405 466 33,000 -3,174 Descending Seattle Center
Tue 01:52:27 AM 46.3750 -117.5789 264° West 398 458 29,300 -3,471 Descending Seattle Center
Tue 01:53:28 AM 46.3622 -117.7469 264° West 416 479 26,000 -3,223 Descending Seattle Center
Tue 01:54:28 AM 46.3519 -117.9158 265° West 421 484 22,800 -3,174 Descending Seattle Center
Tue 01:55:29 AM 46.3406 -118.0731 264° West 405 466 19,600 -3,174 Descending Seattle Center
Tue 01:56:29 AM 46.3411 -118.2250 270° West 382 440 16,400 -2,850 Descending Seattle Center
Tue 01:57:29 AM 46.3611 -118.3731 281° West 374 430 13,900 -2,281 Descending Seattle Center
Tue 01:58:30 AM 46.3794 -118.5119 281° West 354 407 11,800 -2,033 Descending Seattle Center
Tue 01:59:30 AM 46.3964 -118.6378 281° West 320 368 9,800 -1,785 Descending Seattle Center
Tue 02:00:31 AM 46.4108 -118.7461 281° West 278 320 8,200 -1,574 Descending Seattle Center

Login

Don't have an account? Register now (free) for customized features, flight alerts, and more!